sensor_id;sensor_type;location;lat;lon;timestamp;temperature;humidity
13229;DHT22;6680;53.220;10.402;2022-09-01T00:01:34;12.10;99.90
13229;DHT22;6680;53.220;10.402;2022-09-01T00:04:03;12.20;99.90
13229;DHT22;6680;53.220;10.402;2022-09-01T00:06:31;12.20;99.90
13229;DHT22;6680;53.220;10.402;2022-09-01T00:09:02;12.20;99.90
13229;DHT22;6680;53.220;10.402;2022-09-01T00:11:30;12.10;99.90
13229;DHT22;6680;53.220;10.402;2022-09-01T00:13:59;12.10;99.90
13229;DHT22;6680;53.220;10.402;2022-09-01T00:16:27;12.10;99.90
13229;DHT22;6680;53.220;10.402;2022-09-01T00:18:54;12.00;99.90
13229;DHT22;6680;53.220;10.402;2022-09-01T00:21:23;12.00;99.90
13229;DHT22;6680;53.220;10.402;2022-09-01T00:23:50;11.90;99.90
13229;DHT22;6680;53.220;10.402;2022-09-01T00:26:19;11.90;99.90
13229;DHT22;6680;53.220;10.402;2022-09-01T00:28:45;11.90;99.90
13229;DHT22;6680;53.220;10.402;2022-09-01T00:31:13;11.80;99.90
13229;DHT22;6680;53.220;10.402;2022-09-01T00:33:41;11.80;99.90
13229;DHT22;6680;53.220;10.402;2022-09-01T00:36:08;11.80;99.90
13229;DHT22;6680;53.220;10.402;2022-09-01T00:38:35;11.80;99.90
13229;DHT22;6680;53.220;10.402;2022-09-01T00:41:02;13.40;99.90
13229;DHT22;6680;53.220;10.402;2022-09-01T00:43:37;11.70;99.90
13229;DHT22;6680;53.220;10.402;2022-09-01T00:46:06;11.70;99.90
13229;DHT22;6680;53.220;10.402;2022-09-01T00:48:35;11.60;99.90
13229;DHT22;6680;53.220;10.402;2022-09-01T00:51:02;11.60;99.90
13229;DHT22;6680;53.220;10.402;2022-09-01T00:53:30;11.50;99.90
13229;DHT22;6680;53.220;10.402;2022-09-01T00:55:57;11.50;99.90
13229;DHT22;6680;53.220;10.402;2022-09-01T00:58:25;11.40;99.90
13229;DHT22;6680;53.220;10.402;2022-09-01T01:00:53;11.40;99.90
13229;DHT22;6680;53.220;10.402;2022-09-01T01:03:20;11.30;99.90
13229;DHT22;6680;53.220;10.402;2022-09-01T01:05:50;11.30;99.90
13229;DHT22;6680;53.220;10.402;2022-09-01T01:08:21;11.30;99.90
13229;DHT22;6680;53.220;10.402;2022-09-01T01:10:56;11.30;99.90
13229;DHT22;6680;53.220;10.402;2022-09-01T01:13:22;11.30;99.90
13229;DHT22;6680;53.220;10.402;2022-09-01T01:15:53;13.90;99.90
13229;DHT22;6680;53.220;10.402;2022-09-01T01:18:20;11.20;99.90
13229;DHT22;6680;53.220;10.402;2022-09-01T01:20:47;11.10;99.90
13229;DHT22;6680;53.220;10.402;2022-09-01T01:23:37;11.10;99.90
13229;DHT22;6680;53.220;10.402;2022-09-01T01:26:09;11.10;99.90
13229;DHT22;6680;53.220;10.402;2022-09-01T01:28:38;11.10;99.90
13229;DHT22;6680;53.220;10.402;2022-09-01T01:31:08;11.10;99.90
13229;DHT22;6680;53.220;10.402;2022-09-01T01:33:38;11.00;99.90
13229;DHT22;6680;53.220;10.402;2022-09-01T01:36:07;11.00;99.90
13229;DHT22;6680;53.220;10.402;2022-09-01T01:38:37;11.00;99.90
13229;DHT22;6680;53.220;10.402;2022-09-01T01:41:08;11.00;99.90
13229;DHT22;6680;53.220;10.402;2022-09-01T01:43:35;10.90;99.90
13229;DHT22;6680;53.220;10.402;2022-09-01T01:46:03;10.70;99.90
13229;DHT22;6680;53.220;10.402;2022-09-01T01:48:31;10.80;99.90
13229;DHT22;6680;53.220;10.402;2022-09-01T01:51:00;10.70;99.90
13229;DHT22;6680;53.220;10.402;2022-09-01T01:53:27;10.70;99.90
13229;DHT22;6680;53.220;10.402;2022-09-01T01:55:54;10.60;99.90
13229;DHT22;6680;53.220;10.402;2022-09-01T01:58:24;10.60;99.90
13229;DHT22;6680;53.220;10.402;2022-09-01T02:00:54;10.60;99.90
13229;DHT22;6680;53.220;10.402;2022-09-01T02:03:23;10.80;99.90
13229;DHT22;6680;53.220;10.402;2022-09-01T02:05:52;10.60;99.90
13229;DHT22;6680;53.220;10.402;2022-09-01T02:08:20;12.90;99.90
13229;DHT22;6680;53.220;10.402;2022-09-01T02:10:52;10.60;99.90
13229;DHT22;6680;53.220;10.402;2022-09-01T02:13:21;10.60;99.90
13229;DHT22;6680;53.220;10.402;2022-09-01T02:15:58;10.60;99.90
13229;DHT22;6680;53.220;10.402;2022-09-01T02:18:29;10.60;99.90
13229;DHT22;6680;53.220;10.402;2022-09-01T02:20:59;10.60;99.90
13229;DHT22;6680;53.220;10.402;2022-09-01T02:23:26;10.50;99.90
13229;DHT22;6680;53.220;10.402;2022-09-01T02:25:57;10.50;99.90
13229;DHT22;6680;53.220;10.402;2022-09-01T02:28:27;10.50;99.90
13229;DHT22;6680;53.220;10.402;2022-09-01T02:30:57;10.40;99.90
13229;DHT22;6680;53.220;10.402;2022-09-01T02:33:27;10.40;99.90
13229;DHT22;6680;53.220;10.402;2022-09-01T02:35:58;10.40;99.90
13229;DHT22;6680;53.220;10.402;2022-09-01T02:38:26;10.30;99.90
13229;DHT22;6680;53.220;10.402;2022-09-01T02:40:54;10.30;99.90
13229;DHT22;6680;53.220;10.402;2022-09-01T02:43:21;10.30;99.90
13229;DHT22;6680;53.220;10.402;2022-09-01T02:45:49;10.10;99.90
13229;DHT22;6680;53.220;10.402;2022-09-01T02:48:24;10.20;99.90
13229;DHT22;6680;53.220;10.402;2022-09-01T02:50:51;10.20;99.90
13229;DHT22;6680;53.220;10.402;2022-09-01T02:53:21;10.10;99.90
13229;DHT22;6680;53.220;10.402;2022-09-01T02:55:48;10.10;99.90
13229;DHT22;6680;53.220;10.402;2022-09-01T02:58:16;10.10;99.90
13229;DHT22;6680;53.220;10.402;2022-09-01T03:00:45;10.60;99.90
13229;DHT22;6680;53.220;10.402;2022-09-01T03:03:12;10.00;99.90
13229;DHT22;6680;53.220;10.402;2022-09-01T03:05:43;10.00;99.90
13229;DHT22;6680;53.220;10.402;2022-09-01T03:08:11;10.00;99.90
13229;DHT22;6680;53.220;10.402;2022-09-01T03:10:42;10.40;99.90
13229;DHT22;6680;53.220;10.402;2022-09-01T03:13:12;9.90;99.90
13229;DHT22;6680;53.220;10.402;2022-09-01T03:15:40;9.80;99.90
13229;DHT22;6680;53.220;10.402;2022-09-01T03:18:08;9.80;99.90
13229;DHT22;6680;53.220;10.402;2022-09-01T03:20:37;9.70;99.90
13229;DHT22;6680;53.220;10.402;2022-09-01T03:23:11;9.70;99.90
13229;DHT22;6680;53.220;10.402;2022-09-01T03:25:40;9.70;99.90
13229;DHT22;6680;53.220;10.402;2022-09-01T03:28:07;9.60;99.90
13229;DHT22;6680;53.220;10.402;2022-09-01T03:30:35;9.60;99.90
13229;DHT22;6680;53.220;10.402;2022-09-01T03:33:06;9.50;99.90
13229;DHT22;6680;53.220;10.402;2022-09-01T03:35:33;9.50;99.90
13229;DHT22;6680;53.220;10.402;2022-09-01T03:38:01;9.40;99.90
13229;DHT22;6680;53.220;10.402;2022-09-01T03:40:32;9.40;99.90
13229;DHT22;6680;53.220;10.402;2022-09-01T03:43:00;9.80;99.90
13229;DHT22;6680;53.220;10.402;2022-09-01T03:45:27;9.30;99.90
13229;DHT22;6680;53.220;10.402;2022-09-01T03:47:54;9.30;99.90
13229;DHT22;6680;53.220;10.402;2022-09-01T03:50:23;9.20;99.90
13229;DHT22;6680;53.220;10.402;2022-09-01T03:52:52;9.20;99.90
13229;DHT22;6680;53.220;10.402;2022-09-01T03:55:22;9.10;99.90
13229;DHT22;6680;53.220;10.402;2022-09-01T03:57:55;8.90;99.90
13229;DHT22;6680;53.220;10.402;2022-09-01T04:00:24;9.10;99.90
13229;DHT22;6680;53.220;10.402;2022-09-01T04:02:56;9.10;99.90
13229;DHT22;6680;53.220;10.402;2022-09-01T04:05:23;9.00;99.90
13229;DHT22;6680;53.220;10.402;2022-09-01T04:07:54;9.00;99.90
13229;DHT22;6680;53.220;10.402;2022-09-01T04:10:22;9.00;99.90
13229;DHT22;6680;53.220;10.402;2022-09-01T04:12:49;8.90;99.90
13229;DHT22;6680;53.220;10.402;2022-09-01T04:15:17;8.90;99.90
13229;DHT22;6680;53.220;10.402;2022-09-01T04:17:45;8.90;99.90
13229;DHT22;6680;53.220;10.402;2022-09-01T04:20:29;8.70;99.90
13229;DHT22;6680;53.220;10.402;2022-09-01T04:23:04;8.80;99.90
13229;DHT22;6680;53.220;10.402;2022-09-01T04:25:35;8.80;99.90
13229;DHT22;6680;53.220;10.402;2022-09-01T04:28:03;8.80;99.90
13229;DHT22;6680;53.220;10.402;2022-09-01T04:30:38;8.80;99.90
13229;DHT22;6680;53.220;10.402;2022-09-01T04:33:06;8.90;99.90
13229;DHT22;6680;53.220;10.402;2022-09-01T04:35:37;8.90;99.90
13229;DHT22;6680;53.220;10.402;2022-09-01T04:38:04;8.90;99.90
13229;DHT22;6680;53.220;10.402;2022-09-01T04:40:32;8.80;99.90
13229;DHT22;6680;53.220;10.402;2022-09-01T04:43:03;8.80;99.90
13229;DHT22;6680;53.220;10.402;2022-09-01T04:45:30;8.80;99.90
13229;DHT22;6680;53.220;10.402;2022-09-01T04:47:58;8.80;99.90
13229;DHT22;6680;53.220;10.402;2022-09-01T04:50:25;8.70;99.90
13229;DHT22;6680;53.220;10.402;2022-09-01T04:52:57;8.70;99.90
13229;DHT22;6680;53.220;10.402;2022-09-01T04:55:25;8.70;99.90
13229;DHT22;6680;53.220;10.402;2022-09-01T04:57:54;8.80;99.90
13229;DHT22;6680;53.220;10.402;2022-09-01T05:00:24;8.80;99.90
13229;DHT22;6680;53.220;10.402;2022-09-01T05:02:53;8.80;99.90
13229;DHT22;6680;53.220;10.402;2022-09-01T05:05:22;8.80;99.90
13229;DHT22;6680;53.220;10.402;2022-09-01T05:07:49;8.80;99.90
13229;DHT22;6680;53.220;10.402;2022-09-01T05:10:18;8.80;99.90
13229;DHT22;6680;53.220;10.402;2022-09-01T05:12:45;8.80;99.90
13229;DHT22;6680;53.220;10.402;2022-09-01T05:15:13;8.80;99.90
13229;DHT22;6680;53.220;10.402;2022-09-01T05:17:41;8.80;99.90
13229;DHT22;6680;53.220;10.402;2022-09-01T05:20:10;8.70;99.90
13229;DHT22;6680;53.220;10.402;2022-09-01T05:22:39;8.90;99.90
13229;DHT22;6680;53.220;10.402;2022-09-01T05:25:07;9.00;99.90
13229;DHT22;6680;53.220;10.402;2022-09-01T05:27:39;9.10;99.90
13229;DHT22;6680;53.220;10.402;2022-09-01T05:30:07;9.10;99.90
13229;DHT22;6680;53.220;10.402;2022-09-01T05:32:35;9.20;99.90
13229;DHT22;6680;53.220;10.402;2022-09-01T05:35:04;9.30;99.90
13229;DHT22;6680;53.220;10.402;2022-09-01T05:37:33;9.60;99.90
13229;DHT22;6680;53.220;10.402;2022-09-01T05:40:04;9.80;99.90
13229;DHT22;6680;53.220;10.402;2022-09-01T05:42:32;10.00;99.90
13229;DHT22;6680;53.220;10.402;2022-09-01T05:44:59;10.60;99.90
13229;DHT22;6680;53.220;10.402;2022-09-01T05:47:27;11.10;99.90
13229;DHT22;6680;53.220;10.402;2022-09-01T05:49:53;11.60;99.90
13229;DHT22;6680;53.220;10.402;2022-09-01T05:52:23;12.10;99.90
13229;DHT22;6680;53.220;10.402;2022-09-01T05:54:51;12.70;99.90
13229;DHT22;6680;53.220;10.402;2022-09-01T05:57:19;13.20;99.90
13229;DHT22;6680;53.220;10.402;2022-09-01T05:59:45;13.60;99.90
13229;DHT22;6680;53.220;10.402;2022-09-01T06:02:18;13.70;99.90
13229;DHT22;6680;53.220;10.402;2022-09-01T06:04:46;13.70;99.90
13229;DHT22;6680;53.220;10.402;2022-09-01T06:07:15;13.60;99.90
13229;DHT22;6680;53.220;10.402;2022-09-01T06:09:44;13.40;99.90
13229;DHT22;6680;53.220;10.402;2022-09-01T06:12:12;13.20;99.90
13229;DHT22;6680;53.220;10.402;2022-09-01T06:14:44;12.90;99.90
13229;DHT22;6680;53.220;10.402;2022-09-01T06:17:11;12.70;99.90
13229;DHT22;6680;53.220;10.402;2022-09-01T06:19:40;12.60;99.90
13229;DHT22;6680;53.220;10.402;2022-09-01T06:22:08;12.50;99.90
13229;DHT22;6680;53.220;10.402;2022-09-01T06:24:35;12.80;99.90
13229;DHT22;6680;53.220;10.402;2022-09-01T06:27:04;12.60;99.90
13229;DHT22;6680;53.220;10.402;2022-09-01T06:29:35;12.70;99.90
13229;DHT22;6680;53.220;10.402;2022-09-01T06:32:05;12.80;99.90
13229;DHT22;6680;53.220;10.402;2022-09-01T06:34:34;12.80;99.90
13229;DHT22;6680;53.220;10.402;2022-09-01T06:37:01;13.10;99.90
13229;DHT22;6680;53.220;10.402;2022-09-01T06:39:27;13.20;99.90
13229;DHT22;6680;53.220;10.402;2022-09-01T06:41:56;13.30;99.90
13229;DHT22;6680;53.220;10.402;2022-09-01T06:44:23;13.40;99.90
13229;DHT22;6680;53.220;10.402;2022-09-01T06:46:50;13.50;99.90
13229;DHT22;6680;53.220;10.402;2022-09-01T06:49:19;13.60;99.90
13229;DHT22;6680;53.220;10.402;2022-09-01T06:51:48;13.70;99.90
13229;DHT22;6680;53.220;10.402;2022-09-01T06:54:17;13.90;99.90
13229;DHT22;6680;53.220;10.402;2022-09-01T06:56:44;14.10;99.90
13229;DHT22;6680;53.220;10.402;2022-09-01T06:59:11;14.10;99.90
13229;DHT22;6680;53.220;10.402;2022-09-01T07:01:40;14.30;99.90
13229;DHT22;6680;53.220;10.402;2022-09-01T07:04:07;14.50;99.90
13229;DHT22;6680;53.220;10.402;2022-09-01T07:06:38;14.70;99.90
13229;DHT22;6680;53.220;10.402;2022-09-01T07:09:05;14.80;99.90
13229;DHT22;6680;53.220;10.402;2022-09-01T07:11:33;14.90;99.90
13229;DHT22;6680;53.220;10.402;2022-09-01T07:14:02;15.10;99.90
13229;DHT22;6680;53.220;10.402;2022-09-01T07:16:32;15.30;99.90
13229;DHT22;6680;53.220;10.402;2022-09-01T07:19:04;15.30;99.90
13229;DHT22;6680;53.220;10.402;2022-09-01T07:21:31;15.50;99.90
13229;DHT22;6680;53.220;10.402;2022-09-01T07:23:59;15.60;99.90
13229;DHT22;6680;53.220;10.402;2022-09-01T07:26:29;15.70;99.90
13229;DHT22;6680;53.220;10.402;2022-09-01T07:28:56;15.80;99.90
13229;DHT22;6680;53.220;10.402;2022-09-01T07:31:25;16.00;99.90
13229;DHT22;6680;53.220;10.402;2022-09-01T07:33:54;16.10;99.90
13229;DHT22;6680;53.220;10.402;2022-09-01T07:36:23;16.30;99.90
13229;DHT22;6680;53.220;10.402;2022-09-01T07:38:50;16.40;99.90
13229;DHT22;6680;53.220;10.402;2022-09-01T07:41:20;16.50;99.90
13229;DHT22;6680;53.220;10.402;2022-09-01T07:43:48;16.50;99.90
13229;DHT22;6680;53.220;10.402;2022-09-01T07:46:16;16.60;99.90
13229;DHT22;6680;53.220;10.402;2022-09-01T07:48:42;16.70;99.90
13229;DHT22;6680;53.220;10.402;2022-09-01T07:51:11;16.90;99.90
13229;DHT22;6680;53.220;10.402;2022-09-01T07:53:38;17.00;99.90
13229;DHT22;6680;53.220;10.402;2022-09-01T07:56:07;17.10;99.90
13229;DHT22;6680;53.220;10.402;2022-09-01T07:58:36;17.20;99.90
13229;DHT22;6680;53.220;10.402;2022-09-01T08:01:06;17.30;99.90
13229;DHT22;6680;53.220;10.402;2022-09-01T08:03:33;17.30;99.90
13229;DHT22;6680;53.220;10.402;2022-09-01T08:06:02;17.40;99.90
13229;DHT22;6680;53.220;10.402;2022-09-01T08:08:30;17.40;99.90
13229;DHT22;6680;53.220;10.402;2022-09-01T08:10:57;17.40;99.90
13229;DHT22;6680;53.220;10.402;2022-09-01T08:13:24;17.40;99.90
13229;DHT22;6680;53.220;10.402;2022-09-01T08:15:52;17.50;99.90
13229;DHT22;6680;53.220;10.402;2022-09-01T08:18:19;17.70;99.90
13229;DHT22;6680;53.220;10.402;2022-09-01T08:20:45;17.80;99.90
13229;DHT22;6680;53.220;10.402;2022-09-01T08:23:15;17.80;99.90
13229;DHT22;6680;53.220;10.402;2022-09-01T08:25:44;17.90;99.90
13229;DHT22;6680;53.220;10.402;2022-09-01T08:28:12;18.00;99.90
13229;DHT22;6680;53.220;10.402;2022-09-01T08:30:41;18.10;99.90
13229;DHT22;6680;53.220;10.402;2022-09-01T08:33:09;18.10;99.90
13229;DHT22;6680;53.220;10.402;2022-09-01T08:35:38;18.20;99.90
13229;DHT22;6680;53.220;10.402;2022-09-01T08:38:05;18.30;99.90
13229;DHT22;6680;53.220;10.402;2022-09-01T08:40:32;18.40;99.90
13229;DHT22;6680;53.220;10.402;2022-09-01T08:43:08;18.40;99.90
13229;DHT22;6680;53.220;10.402;2022-09-01T08:45:41;18.50;99.90
13229;DHT22;6680;53.220;10.402;2022-09-01T08:48:16;18.60;99.90
13229;DHT22;6680;53.220;10.402;2022-09-01T08:50:48;18.60;99.90
13229;DHT22;6680;53.220;10.402;2022-09-01T08:53:23;18.60;99.90
13229;DHT22;6680;53.220;10.402;2022-09-01T08:55:55;18.70;99.90
13229;DHT22;6680;53.220;10.402;2022-09-01T08:58:23;18.70;99.90
13229;DHT22;6680;53.220;10.402;2022-09-01T09:00:56;18.70;99.90
13229;DHT22;6680;53.220;10.402;2022-09-01T09:03:33;18.80;99.90
13229;DHT22;6680;53.220;10.402;2022-09-01T09:06:12;18.80;99.90
13229;DHT22;6680;53.220;10.402;2022-09-01T09:08:52;18.90;99.90
13229;DHT22;6680;53.220;10.402;2022-09-01T09:11:48;19.00;99.90
13229;DHT22;6680;53.220;10.402;2022-09-01T09:14:34;19.00;99.90
13229;DHT22;6680;53.220;10.402;2022-09-01T09:17:03;19.00;99.90
13229;DHT22;6680;53.220;10.402;2022-09-01T09:19:34;19.00;99.90
13229;DHT22;6680;53.220;10.402;2022-09-01T09:22:04;19.10;99.90
13229;DHT22;6680;53.220;10.402;2022-09-01T09:24:33;19.50;99.90
13229;DHT22;6680;53.220;10.402;2022-09-01T09:27:17;19.20;99.90
13229;DHT22;6680;53.220;10.402;2022-09-01T09:29:45;19.20;99.90
13229;DHT22;6680;53.220;10.402;2022-09-01T09:32:12;19.30;99.90
13229;DHT22;6680;53.220;10.402;2022-09-01T09:34:41;19.50;99.90
13229;DHT22;6680;53.220;10.402;2022-09-01T09:37:22;19.50;99.90
13229;DHT22;6680;53.220;10.402;2022-09-01T09:40:09;19.50;99.90
13229;DHT22;6680;53.220;10.402;2022-09-01T09:42:37;19.50;99.90
13229;DHT22;6680;53.220;10.402;2022-09-01T09:45:06;19.60;99.90
13229;DHT22;6680;53.220;10.402;2022-09-01T09:47:40;19.60;99.90
13229;DHT22;6680;53.220;10.402;2022-09-01T09:50:15;19.60;99.90
13229;DHT22;6680;53.220;10.402;2022-09-01T09:52:43;19.70;99.90
13229;DHT22;6680;53.220;10.402;2022-09-01T09:55:21;19.80;99.90
13229;DHT22;6680;53.220;10.402;2022-09-01T09:57:50;19.80;99.90
13229;DHT22;6680;53.220;10.402;2022-09-01T10:00:20;19.90;99.90
13229;DHT22;6680;53.220;10.402;2022-09-01T10:02:52;20.00;99.90
13229;DHT22;6680;53.220;10.402;2022-09-01T10:05:31;20.00;99.90
13229;DHT22;6680;53.220;10.402;2022-09-01T10:07:59;20.00;99.90
13229;DHT22;6680;53.220;10.402;2022-09-01T10:10:30;20.00;99.90
13229;DHT22;6680;53.220;10.402;2022-09-01T10:12:58;20.00;99.90
13229;DHT22;6680;53.220;10.402;2022-09-01T10:15:27;20.00;99.90
13229;DHT22;6680;53.220;10.402;2022-09-01T10:17:59;20.10;99.90
13229;DHT22;6680;53.220;10.402;2022-09-01T10:20:28;20.20;99.90
13229;DHT22;6680;53.220;10.402;2022-09-01T10:22:55;20.30;99.90
13229;DHT22;6680;53.220;10.402;2022-09-01T10:25:25;20.30;99.90
13229;DHT22;6680;53.220;10.402;2022-09-01T10:27:56;20.30;99.90
13229;DHT22;6680;53.220;10.402;2022-09-01T10:30:24;20.40;99.90
13229;DHT22;6680;53.220;10.402;2022-09-01T10:32:52;20.40;99.90
13229;DHT22;6680;53.220;10.402;2022-09-01T10:35:22;20.50;99.90
13229;DHT22;6680;53.220;10.402;2022-09-01T10:37:52;20.60;99.90
13229;DHT22;6680;53.220;10.402;2022-09-01T10:40:36;20.70;99.90
13229;DHT22;6680;53.220;10.402;2022-09-01T10:43:28;20.70;99.90
13229;DHT22;6680;53.220;10.402;2022-09-01T10:45:55;20.70;99.90
13229;DHT22;6680;53.220;10.402;2022-09-01T10:48:25;20.60;99.90
13229;DHT22;6680;53.220;10.402;2022-09-01T10:53:43;20.80;99.90
13229;DHT22;6680;53.220;10.402;2022-09-01T10:56:15;20.90;99.90
13229;DHT22;6680;53.220;10.402;2022-09-01T10:58:49;20.80;99.90
13229;DHT22;6680;53.220;10.402;2022-09-01T11:05:09;21.30;99.90
13229;DHT22;6680;53.220;10.402;2022-09-01T11:07:36;21.30;99.90
13229;DHT22;6680;53.220;10.402;2022-09-01T11:10:33;21.60;99.90
13229;DHT22;6680;53.220;10.402;2022-09-01T11:16:28;21.60;99.90
13229;DHT22;6680;53.220;10.402;2022-09-01T11:19:13;21.60;99.90
13229;DHT22;6680;53.220;10.402;2022-09-01T11:21:42;21.60;99.90
13229;DHT22;6680;53.220;10.402;2022-09-01T11:24:47;21.80;99.90
13229;DHT22;6680;53.220;10.402;2022-09-01T11:30:31;22.20;99.90
13229;DHT22;6680;53.220;10.402;2022-09-01T11:33:08;22.40;99.90
13229;DHT22;6680;53.220;10.402;2022-09-01T11:35:37;22.30;99.90
13229;DHT22;6680;53.220;10.402;2022-09-01T11:38:05;22.40;99.90
13229;DHT22;6680;53.220;10.402;2022-09-01T11:40:34;22.40;99.90
13229;DHT22;6680;53.220;10.402;2022-09-01T11:43:04;22.30;99.90
13229;DHT22;6680;53.220;10.402;2022-09-01T11:45:36;22.10;99.90
13229;DHT22;6680;53.220;10.402;2022-09-01T11:48:09;22.00;99.90
13229;DHT22;6680;53.220;10.402;2022-09-01T11:50:39;21.70;99.90
13229;DHT22;6680;53.220;10.402;2022-09-01T11:53:09;21.50;99.90
13229;DHT22;6680;53.220;10.402;2022-09-01T11:55:38;21.30;99.90
13229;DHT22;6680;53.220;10.402;2022-09-01T11:58:09;21.10;99.90
13229;DHT22;6680;53.220;10.402;2022-09-01T12:00:40;21.10;99.90
13229;DHT22;6680;53.220;10.402;2022-09-01T12:03:20;20.90;99.90
13229;DHT22;6680;53.220;10.402;2022-09-01T12:05:51;20.90;99.90
13229;DHT22;6680;53.220;10.402;2022-09-01T12:08:19;20.90;99.90
13229;DHT22;6680;53.220;10.402;2022-09-01T12:10:47;20.80;99.90
13229;DHT22;6680;53.220;10.402;2022-09-01T12:13:19;20.80;99.90
13229;DHT22;6680;53.220;10.402;2022-09-01T12:15:54;20.80;99.90
13229;DHT22;6680;53.220;10.402;2022-09-01T12:18:24;20.80;99.90
13229;DHT22;6680;53.220;10.402;2022-09-01T12:20:53;20.70;99.90
13229;DHT22;6680;53.220;10.402;2022-09-01T12:23:24;20.70;99.90
13229;DHT22;6680;53.220;10.402;2022-09-01T12:25:52;20.90;99.90
13229;DHT22;6680;53.220;10.402;2022-09-01T12:28:21;20.90;99.90
13229;DHT22;6680;53.220;10.402;2022-09-01T12:30:49;20.90;99.90
13229;DHT22;6680;53.220;10.402;2022-09-01T12:33:19;20.90;99.90
13229;DHT22;6680;53.220;10.402;2022-09-01T12:35:46;20.80;99.90
13229;DHT22;6680;53.220;10.402;2022-09-01T12:38:28;20.90;99.90
13229;DHT22;6680;53.220;10.402;2022-09-01T12:40:56;20.80;99.90
13229;DHT22;6680;53.220;10.402;2022-09-01T12:43:29;20.80;99.90
13229;DHT22;6680;53.220;10.402;2022-09-01T12:45:56;20.90;99.90
13229;DHT22;6680;53.220;10.402;2022-09-01T12:48:27;21.20;99.90
13229;DHT22;6680;53.220;10.402;2022-09-01T12:50:56;21.40;99.90
13229;DHT22;6680;53.220;10.402;2022-09-01T12:53:26;21.70;99.90
13229;DHT22;6680;53.220;10.402;2022-09-01T12:56:15;21.80;99.90
13229;DHT22;6680;53.220;10.402;2022-09-01T12:58:46;21.90;99.90
13229;DHT22;6680;53.220;10.402;2022-09-01T13:01:25;22.00;99.90
13229;DHT22;6680;53.220;10.402;2022-09-01T13:04:19;22.10;99.90
13229;DHT22;6680;53.220;10.402;2022-09-01T13:06:49;22.10;99.90
13229;DHT22;6680;53.220;10.402;2022-09-01T13:09:16;22.10;99.90
13229;DHT22;6680;53.220;10.402;2022-09-01T13:11:43;22.30;99.80
13229;DHT22;6680;53.220;10.402;2022-09-01T13:14:12;22.40;99.90
13229;DHT22;6680;53.220;10.402;2022-09-01T13:16:39;22.50;98.40
13229;DHT22;6680;53.220;10.402;2022-09-01T13:19:07;22.70;98.80
13229;DHT22;6680;53.220;10.402;2022-09-01T13:21:35;22.70;98.90
13229;DHT22;6680;53.220;10.402;2022-09-01T13:24:04;22.80;98.70
13229;DHT22;6680;53.220;10.402;2022-09-01T13:26:32;22.90;98.50
13229;DHT22;6680;53.220;10.402;2022-09-01T13:28:59;23.10;99.10
13229;DHT22;6680;53.220;10.402;2022-09-01T13:31:26;23.20;99.60
13229;DHT22;6680;53.220;10.402;2022-09-01T13:33:54;23.10;99.90
13229;DHT22;6680;53.220;10.402;2022-09-01T13:36:20;23.00;99.90
13229;DHT22;6680;53.220;10.402;2022-09-01T13:38:48;23.00;99.90
13229;DHT22;6680;53.220;10.402;2022-09-01T13:41:15;22.90;99.90
13229;DHT22;6680;53.220;10.402;2022-09-01T13:43:42;22.70;99.90
13229;DHT22;6680;53.220;10.402;2022-09-01T13:46:09;22.70;99.90
13229;DHT22;6680;53.220;10.402;2022-09-01T13:48:36;22.70;99.90
13229;DHT22;6680;53.220;10.402;2022-09-01T13:51:03;22.70;99.90
13229;DHT22;6680;53.220;10.402;2022-09-01T13:53:30;22.70;99.90
13229;DHT22;6680;53.220;10.402;2022-09-01T13:55:58;21.80;99.90
13229;DHT22;6680;53.220;10.402;2022-09-01T13:58:24;22.70;99.90
13229;DHT22;6680;53.220;10.402;2022-09-01T14:00:51;22.70;99.90
13229;DHT22;6680;53.220;10.402;2022-09-01T14:03:21;22.70;99.90
13229;DHT22;6680;53.220;10.402;2022-09-01T14:05:48;22.60;99.90
13229;DHT22;6680;53.220;10.402;2022-09-01T14:08:17;22.50;99.90
13229;DHT22;6680;53.220;10.402;2022-09-01T14:10:46;22.30;99.90
13229;DHT22;6680;53.220;10.402;2022-09-01T14:13:17;22.20;99.90
13229;DHT22;6680;53.220;10.402;2022-09-01T14:15:44;22.00;99.90
13229;DHT22;6680;53.220;10.402;2022-09-01T14:18:13;21.90;99.90
13229;DHT22;6680;53.220;10.402;2022-09-01T14:20:43;21.90;99.90
13229;DHT22;6680;53.220;10.402;2022-09-01T14:23:10;21.90;99.90
13229;DHT22;6680;53.220;10.402;2022-09-01T14:25:42;21.90;99.90
13229;DHT22;6680;53.220;10.402;2022-09-01T14:28:08;21.90;99.90
13229;DHT22;6680;53.220;10.402;2022-09-01T14:30:39;21.80;99.90
13229;DHT22;6680;53.220;10.402;2022-09-01T14:33:06;21.60;99.90
13229;DHT22;6680;53.220;10.402;2022-09-01T14:35:36;21.50;99.90
13229;DHT22;6680;53.220;10.402;2022-09-01T14:38:04;21.30;99.90
13229;DHT22;6680;53.220;10.402;2022-09-01T14:40:31;21.20;99.90
13229;DHT22;6680;53.220;10.402;2022-09-01T14:42:59;21.20;99.90
13229;DHT22;6680;53.220;10.402;2022-09-01T14:45:27;21.20;99.90
13229;DHT22;6680;53.220;10.402;2022-09-01T14:47:57;21.10;99.90
13229;DHT22;6680;53.220;10.402;2022-09-01T14:50:25;21.20;99.90
13229;DHT22;6680;53.220;10.402;2022-09-01T14:52:55;21.30;99.90
13229;DHT22;6680;53.220;10.402;2022-09-01T14:55:24;21.30;99.90
13229;DHT22;6680;53.220;10.402;2022-09-01T14:57:51;21.50;99.90
13229;DHT22;6680;53.220;10.402;2022-09-01T15:00:20;21.60;99.90
13229;DHT22;6680;53.220;10.402;2022-09-01T15:02:49;21.50;99.90
13229;DHT22;6680;53.220;10.402;2022-09-01T15:05:17;21.50;99.90
13229;DHT22;6680;53.220;10.402;2022-09-01T15:07:44;21.50;99.90
13229;DHT22;6680;53.220;10.402;2022-09-01T15:10:13;21.50;99.90
13229;DHT22;6680;53.220;10.402;2022-09-01T15:12:41;21.60;99.90
13229;DHT22;6680;53.220;10.402;2022-09-01T15:15:08;21.70;99.90
13229;DHT22;6680;53.220;10.402;2022-09-01T15:17:35;21.60;99.90
13229;DHT22;6680;53.220;10.402;2022-09-01T15:20:04;21.60;99.90
13229;DHT22;6680;53.220;10.402;2022-09-01T15:22:46;21.60;99.90
13229;DHT22;6680;53.220;10.402;2022-09-01T15:25:14;21.70;99.90
13229;DHT22;6680;53.220;10.402;2022-09-01T15:27:41;21.70;99.90
13229;DHT22;6680;53.220;10.402;2022-09-01T15:30:09;21.80;99.90
13229;DHT22;6680;53.220;10.402;2022-09-01T15:32:42;21.80;99.90
13229;DHT22;6680;53.220;10.402;2022-09-01T15:35:09;21.80;99.90
13229;DHT22;6680;53.220;10.402;2022-09-01T15:37:36;21.80;99.90
13229;DHT22;6680;53.220;10.402;2022-09-01T15:40:06;21.80;99.90
13229;DHT22;6680;53.220;10.402;2022-09-01T15:42:34;21.80;99.90
13229;DHT22;6680;53.220;10.402;2022-09-01T15:45:02;21.60;99.90
13229;DHT22;6680;53.220;10.402;2022-09-01T15:47:29;21.40;99.90
13229;DHT22;6680;53.220;10.402;2022-09-01T15:49:56;21.30;99.90
13229;DHT22;6680;53.220;10.402;2022-09-01T15:52:23;21.10;99.90
13229;DHT22;6680;53.220;10.402;2022-09-01T15:54:49;21.00;99.90
13229;DHT22;6680;53.220;10.402;2022-09-01T15:57:17;20.80;99.90
13229;DHT22;6680;53.220;10.402;2022-09-01T15:59:44;20.60;99.90
13229;DHT22;6680;53.220;10.402;2022-09-01T16:02:11;20.50;99.90